createdAt,value
2023-01-05T00:07:30.582Z,3.05
2023-01-05T00:37:36.422Z,1.92
2023-01-05T01:07:40.574Z,5.63
2023-01-05T01:37:44.580Z,9.43
2023-01-05T02:07:49.497Z,8.00
2023-01-05T02:38:00.221Z,11.45
2023-01-05T03:08:11.139Z,8.50
2023-01-05T03:38:22.470Z,10.00
2023-01-05T04:08:26.779Z,9.50
2023-01-05T04:38:30.983Z,9.32
2023-01-05T05:08:34.932Z,9.52
2023-01-05T05:38:38.944Z,11.63
2023-01-05T06:08:43.221Z,8.27
2023-01-05T06:38:47.505Z,14.13
2023-01-05T07:08:52.747Z,7.97
2023-01-05T07:38:59.635Z,9.85
2023-01-05T08:09:24.076Z,12.15
2023-01-05T08:39:28.148Z,6.00
2023-01-05T09:09:32.395Z,10.68
2023-01-05T09:39:36.473Z,14.48
2023-01-05T10:09:40.988Z,11.07
2023-01-05T10:40:04.626Z,11.60
2023-01-05T11:10:21.536Z,10.95
2023-01-05T11:40:29.996Z,14.75
2023-01-05T12:10:58.044Z,13.27
2023-01-05T12:41:23.546Z,10.93
2023-01-05T13:11:30.710Z,10.15
2023-01-05T13:41:51.298Z,8.82
2023-01-05T14:12:41.575Z,6.55
2023-01-05T14:42:48.164Z,16.60
2023-01-05T15:13:23.784Z,19.77
2023-01-05T15:43:28.164Z,19.08
2023-01-05T16:13:37.216Z,14.32
2023-01-05T16:43:46.573Z,19.63
2023-01-05T17:13:53.403Z,16.55
2023-01-05T17:43:57.513Z,20.88
2023-01-05T18:14:01.893Z,13.52
2023-01-05T18:44:06.168Z,16.67
2023-01-05T19:14:10.450Z,9.75
2023-01-05T19:44:16.196Z,4.28
2023-01-05T20:14:22.326Z,4.28
2023-01-05T20:44:28.167Z,5.65
2023-01-05T21:14:34.971Z,4.15
2023-01-05T21:44:39.633Z,6.72
2023-01-05T22:14:45.387Z,4.65
2023-01-05T22:44:49.658Z,3.17
2023-01-05T23:14:53.727Z,5.13
2023-01-05T23:44:57.701Z,2.00
